Time;durP1;ratioP1;P1;durP2;ratioP2;P2;SDS_P1;SDS_P2;PMS_P1;PMS_P2;Temp;Humidity;BMP_temperature;BMP_pressure;BME280_temperature;BME280_humidity;BME280_pressure;Samples;Min_cycle;Max_cycle;Signal;HPM_P1;HPM_P2
2022/08/18 00:02:11;;;;;;;11.60;5.90;;;;;;;20.62;54.26;100171.03;5034208;28;20505;-78
2022/08/18 00:04:39;;;;;;;14.88;6.25;;;;;;;20.58;54.21;100174.72;5034079;28;20087;-79
2022/08/18 00:07:19;;;;;;;11.45;6.50;;;;;;;20.46;54.80;100168.88;5034170;28;20111;-75
2022/08/18 00:09:48;;;;;;;9.88;6.03;;;;;;;20.44;55.19;100191.06;5033874;28;20107;-77
2022/08/18 00:12:17;;;;;;;;;;;;;;;20.11;55.57;100179.72;5034334;28;20061;-76
2022/08/18 00:14:45;;;;;;;9.30;5.60;;;;;;;20.15;55.68;100184.88;5033812;28;19925;-79
2022/08/18 00:17:13;;;;;;;9.13;5.80;;;;;;;20.12;56.02;100182.31;5033770;28;20088;-76
2022/08/18 00:19:40;;;;;;;6.50;5.65;;;;;;;20.07;56.15;100191.31;5033806;28;20501;-78
2022/08/18 00:22:17;;;;;;;7.40;6.07;;;;;;;20.01;56.45;100187.97;5033699;28;20052;-78
2022/08/18 00:24:46;;;;;;;10.18;6.18;;;;;;;20.01;56.43;100180.00;5033993;28;20052;-77
2022/08/18 00:27:20;;;;;;;11.95;5.95;;;;;;;19.76;56.61;100137.47;5033863;28;20616;-79
2022/08/18 00:29:48;;;;;;;12.85;6.35;;;;;;;19.91;57.08;100180.34;5033926;28;20053;-76
2022/08/18 00:32:18;;;;;;;16.45;6.72;;;;;;;19.87;56.95;100181.34;5033639;28;20053;-76
2022/08/18 00:34:45;;;;;;;8.98;6.22;;;;;;;19.84;57.11;100191.09;5033803;28;20481;-77
2022/08/18 00:37:12;;;;;;;11.05;6.70;;;;;;;19.66;57.20;100159.84;5036714;28;20054;-78
2022/08/18 00:39:39;;;;;;;11.80;7.50;;;;;;;19.74;57.25;100178.19;5038897;28;20175;-76
2022/08/18 00:42:17;;;;;;;12.00;7.57;;;;;;;19.64;57.42;100177.56;5039656;28;20064;-77
2022/08/18 00:45:02;;;;;;;10.73;7.05;;;;;;;19.65;57.63;100188.09;5033151;28;20061;-78
2022/08/18 00:47:31;;;;;;;11.07;6.68;;;;;;;19.56;58.04;100196.31;5033299;28;20505;-77
2022/08/18 00:50:13;;;;;;;11.63;6.57;;;;;;;19.48;58.19;100187.69;5032493;28;20053;-78
2022/08/18 00:52:46;;;;;;;13.27;7.78;;;;;;;19.47;58.46;100179.78;5033051;28;20049;-77
2022/08/18 00:55:16;;;;;;;11.02;7.00;;;;;;;19.40;58.51;100171.16;5033296;28;20528;-78
2022/08/18 00:57:47;;;;;;;16.13;8.18;;;;;;;19.18;58.85;100139.09;5033059;28;20045;-78
2022/08/18 01:00:14;;;;;;;13.77;8.32;;;;;;;19.30;58.97;100170.56;5033155;28;20049;-75
2022/08/18 01:02:46;;;;;;;14.00;8.20;;;;;;;19.22;59.08;100165.47;5032814;28;20151;-75
2022/08/18 01:05:36;;;;;;;13.43;8.45;;;;;;;19.21;59.24;100173.47;5033358;28;20061;-79
2022/08/18 01:08:04;;;;;;;14.05;9.10;;;;;;;19.18;59.76;100184.13;5031774;28;20563;-76
2022/08/18 01:10:32;;;;;;;15.15;9.65;;;;;;;19.14;59.72;100182.47;5032811;28;20049;-76
2022/08/18 01:12:59;;;;;;;15.13;9.48;;;;;;;19.08;60.01;100182.63;5033021;28;20057;-78
2022/08/18 01:15:28;;;;;;;18.15;10.00;;;;;;;19.00;60.45;100170.47;5031679;28;20049;-78
2022/08/18 01:23:51;;;;;;;14.45;9.35;;;;;;;18.74;60.91;100170.25;5032683;28;20421;-78
2022/08/18 01:26:20;;;;;;;14.85;9.45;;;;;;;18.78;61.10;100187.81;5033075;28;20057;-77
2022/08/18 01:28:48;;;;;;;15.82;9.38;;;;;;;18.74;60.96;100179.06;5032591;28;20136;-76
2022/08/18 01:31:37;;;;;;;13.48;8.63;;;;;;;18.74;61.08;100183.47;5032681;28;20191;-76
2022/08/18 01:34:06;;;;;;;13.80;8.98;;;;;;;18.72;61.14;100183.50;5032934;28;20115;-77
2022/08/18 01:36:37;;;;;;;12.57;8.60;;;;;;;18.71;61.30;100179.09;5032389;28;20470;-76
2022/08/18 01:39:07;;;;;;;13.93;8.07;;;;;;;18.70;61.42;100169.44;5033222;28;20053;-76
2022/08/18 01:41:34;;;;;;;;;;;;;;;18.47;61.37;100170.00;5031688;28;20049;-75
2022/08/18 01:44:02;;;;;;;12.93;8.30;;;;;;;18.57;61.66;100171.53;5034366;28;19925;-77
2022/08/18 01:46:32;;;;;;;16.42;7.88;;;;;;;18.56;61.62;100175.09;5036660;28;20053;-77
2022/08/18 01:49:00;;;;;;;11.48;8.15;;;;;;;18.59;61.69;100174.16;5036586;28;20061;-79
2022/08/18 01:51:30;;;;;;;13.68;7.47;;;;;;;18.50;61.64;100172.59;5036708;28;20057;-79
2022/08/18 01:54:10;;;;;;;13.20;8.30;;;;;;;18.41;61.71;100160.47;5036801;28;20144;-77
2022/08/18 01:56:37;;;;;;;12.57;8.07;;;;;;;18.62;61.64;100205.81;5036845;28;20065;-75
2022/08/18 01:59:05;;;;;;;10.43;7.68;;;;;;;18.75;61.47;100211.66;5036246;28;20056;-77
2022/08/18 02:01:38;;;;;;;13.45;8.05;;;;;;;18.77;61.33;100209.84;5036368;28;20080;-78
2022/08/18 02:04:16;;;;;;;15.27;7.68;;;;;;;18.79;61.49;100210.72;5036519;28;20147;-79
2022/08/18 02:07:05;;;;;;;13.15;7.07;;;;;;;18.81;61.23;100216.84;5034537;28;20099;-78
2022/08/18 02:09:33;;;;;;;13.57;7.03;;;;;;;18.75;61.34;100199.31;5035020;28;20132;-78
2022/08/18 02:12:00;;;;;;;11.13;6.63;;;;;;;18.81;61.25;100204.47;5035812;28;20080;-78
2022/08/18 02:14:28;;;;;;;12.13;6.97;;;;;;;18.83;61.27;100212.38;5036076;28;20120;-78
2022/08/18 02:16:58;;;;;;;10.90;7.00;;;;;;;18.84;61.10;100219.41;5036037;28;20177;-79
2022/08/18 02:19:37;;;;;;;10.43;7.03;;;;;;;18.63;61.41;100171.38;5036308;28;20061;-75
2022/08/18 02:22:05;;;;;;;8.15;6.28;;;;;;;18.83;61.15;100215.91;5036002;28;20060;-79
2022/08/18 02:24:33;;;;;;;13.65;7.22;;;;;;;18.79;61.43;100210.72;5035835;28;20054;-79
2022/08/18 02:27:00;;;;;;;12.05;7.00;;;;;;;18.88;61.15;100221.06;5035803;28;20057;-78
2022/08/18 02:29:27;;;;;;;12.07;6.78;;;;;;;18.87;61.13;100224.63;5035999;28;20254;-77
2022/08/18 02:31:54;;;;;;;12.10;6.85;;;;;;;18.80;61.45;100225.72;5035661;28;20053;-76
2022/08/18 02:34:22;;;;;;;10.10;6.20;;;;;;;18.77;61.51;100231.03;5035896;28;20061;-79
2022/08/18 02:36:49;;;;;;;8.25;6.15;;;;;;;18.71;61.46;100220.59;5034373;28;20045;-81
2022/08/18 02:39:16;;;;;;;9.90;6.10;;;;;;;18.63;61.75;100203.13;5035526;28;20417;-80
2022/08/18 02:41:45;;;;;;;10.15;5.78;;;;;;;18.69;61.61;100222.41;5035548;28;20049;-78
2022/08/18 02:44:13;;;;;;;12.85;5.78;;;;;;;18.67;61.82;100229.50;5035979;28;20104;-78
2022/08/18 02:46:40;;;;;;;9.73;6.32;;;;;;;18.65;61.39;100229.56;5035766;28;20073;-77
2022/08/18 02:49:07;;;;;;;9.55;6.57;;;;;;;18.71;61.37;100226.75;5034370;28;20111;-79
2022/08/18 02:51:34;;;;;;;10.00;6.88;;;;;;;18.77;61.50;100223.94;5035733;28;20053;-79
2022/08/18 02:54:01;;;;;;;9.43;5.80;;;;;;;18.85;61.20;100226.44;5035397;28;20053;-79
2022/08/18 02:56:30;;;;;;;8.95;6.10;;;;;;;18.83;60.84;100213.25;5035133;28;20099;-78
2022/08/18 02:59:14;;;;;;;7.40;5.95;;;;;;;18.76;60.73;100206.34;5035406;28;20532;-77
2022/08/18 03:01:44;;;;;;;17.08;7.13;;;;;;;18.97;60.99;100231.44;5033980;28;20045;-80
2022/08/18 03:04:14;;;;;;;11.07;6.35;;;;;;;18.96;60.66;100226.19;5034065;28;20140;-78
2022/08/18 03:06:42;;;;;;;12.68;6.03;;;;;;;19.03;60.60;100222.47;5035368;28;20103;-77
2022/08/18 03:09:13;;;;;;;9.98;6.43;;;;;;;18.95;60.71;100224.41;5035195;28;20509;-78
2022/08/18 03:11:40;;;;;;;12.65;6.85;;;;;;;19.03;60.50;100225.97;5035323;28;20148;-79
2022/08/18 03:14:10;;;;;;;11.05;6.72;;;;;;;19.09;60.48;100226.75;5035017;28;20107;-79
2022/08/18 03:16:42;;;;;;;13.93;7.07;;;;;;;19.13;60.25;100217.81;5035058;28;20057;-77
2022/08/18 03:19:29;;;;;;;11.15;6.30;;;;;;;19.53;58.97;100222.91;5035249;28;20489;-76
2022/08/18 03:21:58;;;;;;;9.65;6.80;;;;;;;19.92;57.89;100232.41;5034896;28;20063;-78
2022/08/18 03:24:30;;;;;;;15.57;6.90;;;;;;;20.18;57.10;100223.72;5035041;28;20417;-76
2022/08/18 03:27:00;;;;;;;9.00;6.25;;;;;;;20.26;56.73;100226.97;5033446;28;20062;-78
2022/08/18 03:29:27;;;;;;;10.77;6.97;;;;;;;20.43;56.11;100230.00;5034511;28;20080;-77
2022/08/18 03:32:00;;;;;;;11.70;6.90;;;;;;;20.57;55.65;100218.97;5034621;28;20571;-79
2022/08/18 03:34:28;;;;;;;10.73;6.78;;;;;;;20.61;55.37;100225.06;5034733;28;20061;-77
2022/08/18 03:36:55;;;;;;;11.60;7.05;;;;;;;20.72;55.51;100236.19;5034399;28;20049;-79
2022/08/18 03:39:23;;;;;;;10.18;7.85;;;;;;;20.83;54.91;100230.53;5034732;28;20059;-79
2022/08/18 03:41:53;;;;;;;10.82;7.43;;;;;;;20.89;54.77;100232.97;5034368;28;20061;-79
2022/08/18 03:44:30;;;;;;;10.80;7.53;;;;;;;20.92;54.50;100230.22;5034984;28;20057;-78
2022/08/18 03:46:59;;;;;;;14.85;8.90;;;;;;;21.11;53.95;100238.44;5034298;28;20115;-76
2022/08/18 03:49:26;;;;;;;12.40;8.77;;;;;;;21.21;53.66;100236.34;5033492;28;20045;-77
2022/08/18 03:51:54;;;;;;;13.25;8.07;;;;;;;21.06;54.13;100232.41;5034378;28;20506;-80
2022/08/18 03:54:24;;;;;;;10.32;7.97;;;;;;;20.83;54.67;100225.22;5034242;28;20053;-78
2022/08/18 03:56:54;;;;;;;12.88;7.35;;;;;;;20.64;55.13;100235.56;5034294;28;20046;-77
2022/08/18 03:59:22;;;;;;;;;;;;;;;20.22;56.08;100230.66;5034751;28;20049;-79
2022/08/18 04:01:52;;;;;;;11.70;7.88;;;;;;;20.31;56.29;100233.03;5033878;28;19940;-77
2022/08/18 04:04:24;;;;;;;15.65;7.55;;;;;;;20.40;56.04;100234.53;5034254;28;20050;-81
2022/08/18 04:07:04;;;;;;;11.10;8.23;;;;;;;20.40;56.46;100234.53;5033608;28;20053;-79
2022/08/18 04:09:34;;;;;;;14.80;8.07;;;;;;;20.50;55.90;100230.66;5034586;28;20054;-79
2022/08/18 04:12:10;;;;;;;12.30;7.93;;;;;;;20.53;56.29;100232.34;5033501;28;20049;-78
2022/08/18 04:14:46;;;;;;;16.05;7.93;;;;;;;20.40;55.91;100224.78;5032910;28;20088;-79
2022/08/18 04:17:22;;;;;;;12.25;7.80;;;;;;;20.53;56.36;100233.22;5034407;28;20144;-77
2022/08/18 04:19:53;;;;;;;11.30;7.22;;;;;;;20.52;55.88;100217.34;5033863;28;20052;-80
2022/08/18 04:22:21;;;;;;;13.65;8.18;;;;;;;20.58;56.09;100231.31;5032622;28;20054;-78
2022/08/18 04:24:51;;;;;;;16.80;7.30;;;;;;;20.56;55.86;100203.06;5033672;28;20065;-78
2022/08/18 04:27:21;;;;;;;11.82;7.18;;;;;;;20.78;55.86;100221.81;5038423;28;20502;-78
2022/08/18 04:29:48;;;;;;;15.60;8.55;;;;;;;20.84;55.69;100225.16;5038538;28;20065;-78
2022/08/18 04:32:15;;;;;;;12.30;6.80;;;;;;;20.87;55.55;100226.84;5033270;28;20045;-78
2022/08/18 04:34:43;;;;;;;13.05;7.60;;;;;;;20.98;55.39;100227.34;5033150;28;20057;-79
2022/08/18 04:37:10;;;;;;;12.63;7.28;;;;;;;20.96;55.15;100223.00;5033414;28;20095;-78
2022/08/18 04:39:37;;;;;;;11.23;6.97;;;;;;;21.20;54.88;100237.25;5033301;28;20472;-78
2022/08/18 04:42:04;;;;;;;13.15;7.57;;;;;;;21.39;54.34;100235.69;5033139;28;20500;-77
2022/08/18 04:44:33;;;;;;;10.35;6.60;;;;;;;21.66;53.49;100236.53;5033563;28;20049;-78
2022/08/18 04:47:00;;;;;;;9.93;6.97;;;;;;;21.95;53.26;100237.22;5033536;28;20049;-77
2022/08/18 04:49:30;;;;;;;11.02;7.18;;;;;;;22.24;52.25;100244.13;5033664;28;20421;-78
2022/08/18 04:55:04;;;;;;;10.50;6.65;;;;;;;22.42;51.83;100236.34;5033306;28;20521;-78
2022/08/18 04:57:32;;;;;;;8.20;6.22;;;;;;;22.38;51.83;100245.38;5031651;28;20148;-78
2022/08/18 05:00:03;;;;;;;9.40;6.45;;;;;;;22.24;51.78;100204.22;5032936;28;20045;-79
2022/08/18 05:02:31;;;;;;;10.95;6.70;;;;;;;22.85;51.18;100234.59;5033353;28;20057;-79
2022/08/18 05:05:02;;;;;;;8.05;6.40;;;;;;;23.34;49.99;100227.22;5033160;28;20058;-78
2022/08/18 05:07:29;;;;;;;13.45;6.97;;;;;;;23.73;49.20;100241.53;5032824;28;20505;-80
2022/08/18 05:09:56;;;;;;;10.30;6.40;;;;;;;23.83;48.50;100225.06;5033379;28;20072;-82
2022/08/18 05:12:23;;;;;;;11.38;6.80;;;;;;;24.11;48.01;100240.66;5032428;28;20064;-78
2022/08/18 05:14:53;;;;;;;11.37;6.40;;;;;;;24.37;47.43;100230.56;5031576;28;20057;-81
2022/08/18 05:17:20;;;;;;;10.68;6.80;;;;;;;24.14;47.22;100249.47;5033772;28;20092;-80
2022/08/18 05:19:48;;;;;;;10.30;5.95;;;;;;;23.86;48.31;100230.25;5038840;28;20049;-78
2022/08/18 05:22:18;;;;;;;9.07;6.38;;;;;;;23.87;48.40;100229.28;5037316;28;20061;-80
2022/08/18 05:24:54;;;;;;;11.77;6.45;;;;;;;24.02;48.04;100232.19;5038623;28;20080;-80
2022/08/18 05:27:21;;;;;;;12.32;5.95;;;;;;;24.13;48.13;100240.56;5034533;28;20053;-81
2022/08/18 05:29:48;;;;;;;9.10;5.80;;;;;;;24.19;47.87;100242.94;5033612;28;20054;-82
2022/08/18 05:32:26;;;;;;;10.48;6.03;;;;;;;24.32;47.71;100233.41;5033035;28;20139;-77
2022/08/18 05:35:29;;;;;;;11.82;6.55;;;;;;;24.76;47.15;100236.69;5032428;28;20136;-78
2022/08/18 05:38:00;;;;;;;10.23;6.25;;;;;;;24.99;46.64;100238.22;5032705;28;20499;-79
2022/08/18 05:40:28;;;;;;;12.48;6.63;;;;;;;24.72;46.45;100212.81;5032313;28;20050;-78
2022/08/18 05:42:58;;;;;;;13.27;6.63;;;;;;;25.00;46.83;100250.66;5031807;28;20081;-79
2022/08/18 05:45:26;;;;;;;8.55;5.88;;;;;;;24.82;46.54;100215.03;5037768;28;20099;-78
2022/08/18 05:47:58;;;;;;;10.07;6.20;;;;;;;25.05;46.38;100236.13;5040497;28;20057;-80
2022/08/18 05:50:28;;;;;;;10.45;6.20;;;;;;;25.15;45.97;100236.53;5043563;28;20053;-79
2022/08/18 05:53:11;;;;;;;9.45;6.00;;;;;;;25.02;46.37;100244.31;5039729;28;20050;-79
2022/08/18 05:58:37;;;;;;;11.20;6.32;;;;;;;24.93;46.02;100221.59;5041422;28;20072;-77
2022/08/18 06:01:10;;;;;;;9.90;6.30;;;;;;;25.21;45.92;100246.94;5038121;28;20053;-78
2022/08/18 06:03:48;;;;;;;8.10;5.70;;;;;;;25.24;44.83;100213.84;5038123;28;20121;-78
2022/08/18 06:06:29;;;;;;;7.28;5.40;;;;;;;25.50;43.86;100229.38;5033283;28;20072;-79
2022/08/18 06:09:22;;;;;;;7.70;5.05;;;;;;;25.70;43.62;100249.69;5031551;28;20151;-80
2022/08/18 06:11:50;;;;;;;9.95;5.15;;;;;;;25.72;42.86;100242.44;5032766;28;20077;-80
2022/08/18 06:14:17;;;;;;;12.23;5.13;;;;;;;25.63;42.64;100237.59;5032178;28;20050;-79
2022/08/18 06:17:08;;;;;;;8.48;5.00;;;;;;;25.91;42.49;100252.22;5032219;28;20144;-79
2022/08/18 06:20:33;;;;;;;7.55;4.95;;;;;;;26.03;42.07;100254.22;5031418;28;20057;-80
2022/08/18 06:23:35;;;;;;;5.88;4.40;;;;;;;26.05;41.05;100262.16;4984231;28;20105;-79
2022/08/18 06:26:07;;;;;;;7.97;4.75;;;;;;;25.78;41.18;100230.56;4941034;28;20551;-81
2022/08/18 06:28:51;;;;;;;8.73;4.43;;;;;;;25.93;40.82;100237.78;5036965;28;20045;-79
2022/08/18 06:31:40;;;;;;;8.55;4.97;;;;;;;26.11;40.80;100262.72;5040189;28;20497;-81
2022/08/18 06:34:17;;;;;;;10.27;4.80;;;;;;;26.22;40.65;100261.22;5036904;28;20045;-80
2022/08/18 06:36:47;;;;;;;8.60;4.30;;;;;;;26.26;40.45;100255.63;5035474;28;20421;-80
2022/08/18 06:39:44;;;;;;;6.90;4.50;;;;;;;26.22;40.38;100262.13;5035694;28;20077;-80
2022/08/18 06:42:15;;;;;;;8.90;4.90;;;;;;;26.09;39.97;100231.59;5036550;28;20053;-82
2022/08/18 06:44:47;;;;;;;7.60;4.10;;;;;;;26.40;39.66;100264.72;5035988;28;20054;-79
2022/08/18 06:47:43;;;;;;;8.00;4.70;;;;;;;26.31;39.62;100258.06;5034595;28;20057;-80
2022/08/18 06:50:16;;;;;;;7.85;3.97;;;;;;;26.43;39.61;100254.66;5037344;28;20115;-80
2022/08/18 06:52:53;;;;;;;6.90;4.38;;;;;;;26.61;39.31;100247.47;5042310;28;20075;-79
2022/08/18 06:55:35;;;;;;;6.70;4.40;;;;;;;26.77;39.10;100252.78;5042265;28;20057;-79
2022/08/18 06:58:25;;;;;;;8.57;4.32;;;;;;;26.87;38.73;100261.16;5044147;28;20057;-79
2022/08/18 07:00:52;;;;;;;8.25;4.35;;;;;;;26.83;38.57;100255.13;5038938;28;20092;-79
2022/08/18 07:03:23;;;;;;;;;;;;;;;26.67;39.26;100247.13;5039939;28;20053;-77
2022/08/18 07:06:27;;;;;;;6.47;3.83;;;;;;;26.75;38.24;100252.00;5039470;28;19925;-79
2022/08/18 07:09:15;;;;;;;6.32;3.63;;;;;;;26.83;37.60;100271.19;5019691;28;20053;-77
2022/08/18 07:12:01;;;;;;;5.25;3.70;;;;;;;26.77;36.97;100248.28;5039960;28;20053;-81
2022/08/18 07:14:28;;;;;;;9.40;4.07;;;;;;;26.68;36.79;100235.44;5039706;28;20049;-81
2022/08/18 07:17:10;;;;;;;7.18;3.83;;;;;;;26.91;36.51;100249.28;5034753;28;20053;-81
2022/08/18 07:19:37;;;;;;;5.15;3.83;;;;;;;27.01;36.27;100242.44;5034260;28;20504;-80
2022/08/18 07:22:11;;;;;;;8.70;3.53;;;;;;;27.04;36.27;100238.72;5034619;28;20148;-83
2022/08/18 07:24:53;;;;;;;6.97;3.63;;;;;;;27.11;36.15;100245.47;5034747;28;20053;-80
2022/08/18 07:27:39;;;;;;;7.55;3.70;;;;;;;27.06;35.74;100218.94;5036042;28;20178;-81
2022/08/18 07:30:20;;;;;;;8.10;3.70;;;;;;;27.23;35.98;100241.19;5035879;28;20113;-81
2022/08/18 07:33:00;;;;;;;8.82;3.70;;;;;;;27.46;35.88;100239.81;5036284;28;20091;-81
2022/08/18 07:35:31;;;;;;;;;;;;;;;27.42;36.61;100240.97;5036396;28;20050;-81
2022/08/18 07:38:27;;;;;;;7.82;3.97;;;;;;;27.70;35.38;100242.81;5035493;28;19925;-81
2022/08/18 07:41:38;;;;;;;7.38;3.47;;;;;;;27.74;35.57;100238.97;5031373;28;20076;-79
2022/08/18 07:44:42;;;;;;;7.88;3.67;;;;;;;27.76;35.35;100234.38;5033206;28;20057;-79
2022/08/18 07:47:31;;;;;;;6.35;3.70;;;;;;;27.64;35.25;100233.34;5016782;28;20103;-80
2022/08/18 07:50:01;;;;;;;7.05;3.67;;;;;;;27.44;34.76;100196.97;5033349;28;20091;-81
2022/08/18 07:53:14;;;;;;;8.13;3.47;;;;;;;27.66;34.96;100226.06;5034739;28;20045;-80
2022/08/18 07:55:46;;;;;;;5.88;3.45;;;;;;;27.80;34.49;100227.00;5033207;28;20053;-80
2022/08/18 07:58:24;;;;;;;3.70;3.40;;;;;;;27.62;34.48;100232.56;5032860;28;20091;-80
2022/08/18 08:00:51;;;;;;;6.65;3.67;;;;;;;27.61;34.42;100232.66;5034284;28;20061;-83
2022/08/18 08:03:46;;;;;;;6.82;3.63;;;;;;;27.73;34.62;100240.81;5034177;28;20056;-81
2022/08/18 08:06:22;;;;;;;7.00;3.60;;;;;;;27.79;34.09;100252.97;5034033;28;20103;-84
2022/08/18 08:09:13;;;;;;;8.57;3.35;;;;;;;27.59;33.80;100240.78;5034309;28;20076;-80
2022/08/18 08:12:01;;;;;;;4.93;3.08;;;;;;;27.41;33.87;100215.97;5034118;28;20060;-79
2022/08/18 08:14:41;;;;;;;5.93;3.30;;;;;;;27.67;33.80;100237.66;5034249;28;20460;-79
2022/08/18 08:17:37;;;;;;;4.40;3.40;;;;;;;27.61;33.85;100222.78;5033697;28;20061;-80
2022/08/18 08:20:11;;;;;;;4.57;2.97;;;;;;;27.72;33.50;100231.00;5033935;28;20099;-80
2022/08/18 08:22:50;;;;;;;7.60;3.47;;;;;;;27.76;33.54;100232.53;5032919;28;20065;-81
2022/08/18 08:25:39;;;;;;;6.45;2.90;;;;;;;27.76;33.18;100237.91;5034234;28;20049;-81
2022/08/18 08:28:13;;;;;;;8.25;3.05;;;;;;;27.81;33.16;100251.03;5046713;28;20151;-82
2022/08/18 08:31:01;;;;;;;7.70;3.90;;;;;;;27.78;33.34;100241.38;5033724;28;20053;-82
2022/08/18 08:33:57;;;;;;;5.68;3.25;;;;;;;27.74;33.52;100209.47;5033782;28;20049;-79
2022/08/18 08:36:36;;;;;;;6.80;3.72;;;;;;;27.92;32.96;100237.88;5033830;28;20054;-80
2022/08/18 08:39:16;;;;;;;7.53;3.50;;;;;;;27.67;32.81;100234.97;5033193;28;20107;-79
2022/08/18 08:41:51;;;;;;;7.05;3.17;;;;;;;27.68;32.99;100234.00;5032334;28;20107;-80
2022/08/18 08:44:33;;;;;;;5.20;3.42;;;;;;;27.68;32.93;100250.09;5033234;28;20049;-79
2022/08/18 08:47:14;;;;;;;7.68;3.30;;;;;;;27.66;33.22;100230.53;5033168;28;20157;-80
2022/08/18 08:50:01;;;;;;;8.75;3.58;;;;;;;27.78;32.67;100230.63;5033393;28;20049;-80
2022/08/18 08:52:40;;;;;;;8.27;3.15;;;;;;;27.85;32.87;100241.00;5033089;28;20053;-80
2022/08/18 08:55:16;;;;;;;7.32;3.60;;;;;;;27.80;32.91;100225.19;5033369;28;20509;-81
2022/08/18 08:57:58;;;;;;;6.45;3.75;;;;;;;27.85;32.66;100222.19;5033615;28;20053;-79
2022/08/18 09:00:27;;;;;;;8.60;3.35;;;;;;;27.73;31.41;100199.69;5032920;28;20451;-81
2022/08/18 09:03:09;;;;;;;5.00;3.10;;;;;;;27.97;30.78;100225.00;5033192;28;20103;-80
2022/08/18 09:05:58;;;;;;;4.97;3.00;;;;;;;27.99;31.32;100235.66;5033463;28;20061;-79
2022/08/18 09:08:59;;;;;;;6.28;2.83;;;;;;;28.11;31.21;100225.94;5012729;28;20049;-80
2022/08/18 09:12:09;;;;;;;3.72;3.20;;;;;;;27.93;31.65;100228.84;5032015;28;20054;-81
2022/08/18 09:15:15;;;;;;;5.97;2.88;;;;;;;27.98;31.67;100215.13;5012759;28;20053;-81
2022/08/18 09:18:11;;;;;;;8.93;3.00;;;;;;;27.84;30.44;100213.28;5013317;28;20505;-79
2022/08/18 09:21:02;;;;;;;6.65;2.95;;;;;;;27.98;30.39;100233.91;5013257;28;20045;-79
2022/08/18 09:23:34;;;;;;;2.92;2.67;;;;;;;27.78;30.16;100197.56;5019989;28;20049;-79
2022/08/18 09:26:34;;;;;;;3.25;2.95;;;;;;;28.06;30.37;100244.19;5028410;28;20469;-79
2022/08/18 09:29:45;;;;;;;3.15;2.83;;;;;;;27.97;30.16;100211.59;5017836;28;20053;-80
2022/08/18 09:32:18;;;;;;;7.45;3.20;;;;;;;28.10;30.14;100226.91;5035205;28;20057;-79
2022/08/18 09:35:29;;;;;;;6.05;3.25;;;;;;;28.05;30.03;100232.59;5033198;28;20529;-80
2022/08/18 09:44:10;;;;;;;5.60;3.00;;;;;;;28.13;29.52;100234.75;5030775;28;20069;-79
2022/08/18 09:46:59;;;;;;;6.78;2.92;;;;;;;27.97;29.44;100238.44;5030225;28;20055;-79
2022/08/18 09:49:27;;;;;;;5.03;2.88;;;;;;;27.76;29.41;100194.13;5032896;28;20053;-81
2022/08/18 09:52:20;;;;;;;5.57;3.17;;;;;;;28.06;29.84;100228.06;5032720;28;20490;-80
2022/08/18 09:55:16;;;;;;;4.40;3.22;;;;;;;28.14;28.69;100212.34;5032739;28;20052;-79
2022/08/18 09:57:46;;;;;;;7.60;3.10;;;;;;;28.21;28.76;100232.47;5033500;28;20064;-79
2022/08/18 10:00:30;;;;;;;7.45;2.70;;;;;;;28.15;27.31;100206.00;5032430;28;20053;-80
2022/08/18 10:03:03;;;;;;;5.85;3.10;;;;;;;28.08;27.85;100200.16;5032738;28;20498;-78
2022/08/18 10:05:30;;;;;;;5.68;2.55;;;;;;;28.22;26.78;100196.56;5034918;28;20049;-80
2022/08/18 10:08:13;;;;;;;4.10;2.47;;;;;;;28.41;26.52;100215.03;5036915;28;20409;-80
2022/08/18 10:10:48;;;;;;;5.18;2.58;;;;;;;28.42;26.03;100208.72;5037285;28;20054;-79
2022/08/18 10:13:58;;;;;;;7.78;2.80;;;;;;;28.39;25.67;100217.84;5038304;28;20053;-79
2022/08/18 10:16:31;;;;;;;3.63;2.88;;;;;;;28.32;26.91;100207.59;5037140;28;20045;-80
2022/08/18 10:19:46;;;;;;;5.45;2.50;;;;;;;28.45;26.79;100226.47;5036298;28;20481;-82
2022/08/18 10:22:37;;;;;;;7.43;2.58;;;;;;;28.37;26.15;100198.28;5030883;28;20115;-79
2022/08/18 10:25:08;;;;;;;4.97;2.60;;;;;;;28.57;25.72;100215.81;5035083;28;20061;-80
2022/08/18 10:27:53;;;;;;;4.50;2.40;;;;;;;28.65;25.72;100238.59;5016653;28;20141;-80
2022/08/18 10:30:32;;;;;;;7.88;2.65;;;;;;;28.59;25.55;100218.41;5015944;28;20418;-80
2022/08/18 10:33:31;;;;;;;5.38;2.42;;;;;;;28.47;26.14;100203.03;5016339;28;20562;-79
2022/08/18 10:35:59;;;;;;;5.35;2.40;;;;;;;28.43;25.89;100174.66;5016269;28;20054;-81
2022/08/18 10:38:52;;;;;;;3.50;2.20;;;;;;;28.55;25.86;100220.41;5015707;28;20435;-78
2022/08/18 10:41:25;;;;;;;3.50;2.40;;;;;;;28.39;25.78;100184.72;5016109;28;20057;-77
2022/08/18 10:43:53;;;;;;;3.47;2.60;;;;;;;28.59;26.33;100205.81;5016349;28;20046;-78
2022/08/18 10:46:27;;;;;;;5.72;2.60;;;;;;;28.72;25.82;100189.72;5016350;28;20112;-80
2022/08/18 10:49:13;;;;;;;5.40;2.45;;;;;;;28.86;26.08;100201.38;5016181;28;20422;-82
2022/08/18 10:52:17;;;;;;;3.83;2.22;;;;;;;28.82;26.45;100199.84;5016269;28;20065;-79
2022/08/18 10:54:58;;;;;;;2.42;2.17;;;;;;;28.69;26.17;100214.09;5016017;28;20050;-79
2022/08/18 10:57:53;;;;;;;5.72;2.38;;;;;;;28.63;26.47;100214.53;5035342;28;20403;-82
2022/08/18 11:00:22;;;;;;;4.50;2.40;;;;;;;28.58;26.43;100208.59;5033865;28;20053;-78
2022/08/18 11:03:20;;;;;;;5.13;2.60;;;;;;;28.64;26.09;100210.88;5031173;28;20081;-78
2022/08/18 11:06:13;;;;;;;5.57;2.28;;;;;;;28.42;25.83;100170.25;5035313;28;20136;-80
2022/08/18 11:08:49;;;;;;;3.88;2.33;;;;;;;28.66;26.07;100229.59;5049693;28;20056;-79
2022/08/18 11:11:42;;;;;;;2.83;2.30;;;;;;;28.67;26.10;100210.66;5052268;28;20053;-80
2022/08/18 11:14:49;;;;;;;6.30;2.53;;;;;;;28.78;26.53;100199.19;5051682;28;20050;-80
2022/08/18 11:17:17;;;;;;;;;;;;;;;28.61;26.98;100208.41;5034452;28;20072;-81
2022/08/18 11:19:45;;;;;;;4.55;2.70;;;;;;;28.70;26.90;100202.41;5036307;28;19979;-79
2022/08/18 11:22:26;;;;;;;3.78;2.88;;;;;;;28.64;26.47;100192.06;5033828;28;20152;-79
2022/08/18 11:25:00;;;;;;;3.65;2.45;;;;;;;28.64;26.41;100192.06;5034779;28;20052;-79
2022/08/18 11:27:48;;;;;;;4.20;2.90;;;;;;;28.73;26.89;100190.59;5035215;28;20567;-77
2022/08/18 11:30:17;;;;;;;4.63;3.22;;;;;;;28.73;27.07;100177.16;5034703;28;20521;-79
2022/08/18 11:32:45;;;;;;;5.60;3.17;;;;;;;28.93;27.05;100195.50;5033499;28;20080;-79
2022/08/18 11:35:26;;;;;;;3.90;2.47;;;;;;;28.92;27.03;100190.22;5033673;28;20056;-80
2022/08/18 11:37:58;;;;;;;4.70;3.10;;;;;;;28.74;27.60;100174.38;5035371;28;20592;-79
2022/08/18 11:40:33;;;;;;;8.35;3.22;;;;;;;28.87;27.77;100195.06;5034537;28;20532;-78
2022/08/18 11:43:34;;;;;;;5.72;3.03;;;;;;;28.87;27.50;100192.34;5034458;28;20049;-78
2022/08/18 11:46:29;;;;;;;5.30;3.05;;;;;;;28.84;27.76;100187.16;5034862;28;20053;-79
2022/08/18 11:49:15;;;;;;;3.60;2.83;;;;;;;28.85;27.90;100191.59;5033124;28;20406;-79
2022/08/18 11:51:56;;;;;;;5.75;3.30;;;;;;;28.87;28.08;100182.47;5034415;28;20053;-80
2022/08/18 11:54:38;;;;;;;5.68;3.28;;;;;;;28.96;27.87;100214.09;5034300;28;20060;-80
2022/08/18 11:57:30;;;;;;;5.28;2.55;;;;;;;28.90;27.73;100187.63;5034366;28;20099;-79
2022/08/18 11:59:57;;;;;;;5.63;2.80;;;;;;;28.75;27.62;100157.25;5034211;28;20187;-79
2022/08/18 12:02:27;;;;;;;3.47;2.80;;;;;;;29.05;28.13;100203.69;5034134;28;20045;-79
2022/08/18 12:05:01;;;;;;;4.90;2.92;;;;;;;29.09;27.34;100175.63;5034267;28;20107;-79
2022/08/18 12:07:34;;;;;;;5.30;3.05;;;;;;;29.01;27.80;100170.75;5034279;28;20056;-79
2022/08/18 12:10:23;;;;;;;5.07;2.78;;;;;;;29.03;28.26;100184.09;5034430;28;20054;-79
2022/08/18 12:12:58;;;;;;;7.15;3.00;;;;;;;29.10;28.29;100174.66;5034128;28;20057;-80
2022/08/18 12:15:32;;;;;;;5.38;3.00;;;;;;;29.08;28.18;100177.44;5033932;28;20148;-79
2022/08/18 12:18:17;;;;;;;5.75;3.20;;;;;;;28.67;28.22;100099.63;5034096;28;20084;-76
2022/08/18 12:20:57;;;;;;;4.25;2.75;;;;;;;29.02;28.24;100194.00;5032817;28;20077;-76
2022/08/18 12:23:25;;;;;;;4.18;3.05;;;;;;;29.04;27.93;100177.75;5032543;28;20057;-77
2022/08/18 12:25:52;;;;;;;3.88;3.03;;;;;;;29.06;28.40;100176.69;5016236;28;20049;-78
2022/08/18 12:28:20;;;;;;;10.35;3.10;;;;;;;29.11;27.66;100153.06;5033401;28;20050;-78